Time;durP1;ratioP1;P1;durP2;ratioP2;P2;SDS_P1;SDS_P2;PMS_P1;PMS_P2;Temp;Humidity;BMP_temperature;BMP_pressure;BME280_temperature;BME280_humidity;BME280_pressure;Samples;Min_cycle;Max_cycle;Signal;HPM_P1;HPM_P2
2023/05/24 00:01:25;;;;;;;6.97;3.60;;;;;;;15.41;49.66;100668.84;10306741;28;20696;-60
2023/05/24 00:06:27;;;;;;;6.30;2.78;;;;;;;15.39;49.72;100660.94;10295395;28;20042;-60
2023/05/24 00:11:29;;;;;;;7.38;3.03;;;;;;;15.27;50.07;100652.19;10296543;28;20776;-60
2023/05/24 00:16:31;;;;;;;7.82;3.35;;;;;;;15.21;50.15;100647.41;10301442;28;20100;-60
2023/05/24 00:21:35;;;;;;;9.02;2.90;;;;;;;15.23;50.01;100652.63;10300716;28;20386;-60
2023/05/24 00:26:37;;;;;;;6.45;2.67;;;;;;;15.19;50.20;100650.25;10291611;28;20600;-60
2023/05/24 00:31:38;;;;;;;6.32;2.72;;;;;;;15.03;50.30;100652.66;10312151;28;20523;-60
2023/05/24 00:36:40;;;;;;;7.18;2.80;;;;;;;14.93;50.75;100649.16;10303321;28;20056;-60
2023/05/24 00:41:41;;;;;;;5.78;2.78;;;;;;;14.83;50.35;100654.50;10309533;28;20058;-60
2023/05/24 00:46:44;;;;;;;7.95;2.80;;;;;;;14.83;50.55;100655.38;10281842;28;20622;-60
2023/05/24 00:51:45;;;;;;;7.47;3.22;;;;;;;14.82;50.72;100658.19;10308486;28;20041;-60
2023/05/24 00:56:47;;;;;;;6.93;2.47;;;;;;;14.54;51.67;100660.66;10271841;28;20518;-59
2023/05/24 01:01:49;;;;;;;5.85;2.83;;;;;;;14.50;50.90;100659.25;10308689;28;20046;-60
2023/05/24 01:06:59;;;;;;;5.90;3.08;;;;;;;14.40;51.12;100664.59;10302651;28;20274;-60
2023/05/24 01:12:07;;;;;;;5.60;3.00;;;;;;;14.35;51.09;100672.19;10296391;28;20695;-60
2023/05/24 01:17:18;;;;;;;4.25;2.70;;;;;;;14.41;51.04;100671.66;10307885;28;20042;-60
2023/05/24 01:22:44;;;;;;;9.73;3.42;;;;;;;14.42;50.79;100673.31;10307639;28;20053;-60
2023/05/24 01:27:46;;;;;;;6.72;2.83;;;;;;;14.40;50.82;100666.44;10307900;28;20168;-60
2023/05/24 01:32:48;;;;;;;7.53;2.72;;;;;;;14.44;50.60;100658.00;10306651;28;20050;-60
2023/05/24 01:37:49;;;;;;;7.80;2.53;;;;;;;14.41;50.63;100654.72;10286734;28;20050;-59
2023/05/24 01:42:58;;;;;;;6.97;2.88;;;;;;;14.24;50.89;100643.69;10293759;28;20687;-59
2023/05/24 01:48:23;;;;;;;7.53;2.65;;;;;;;14.23;50.73;100657.22;10302969;28;20133;-59
2023/05/24 01:53:31;;;;;;;6.57;2.72;;;;;;;14.03;51.00;100651.81;10297314;28;20081;-60
2023/05/24 01:58:35;;;;;;;6.50;2.95;;;;;;;13.93;50.69;100646.44;10305699;28;20057;-58
2023/05/24 02:03:37;;;;;;;8.15;3.22;;;;;;;14.10;50.73;100657.50;10291923;28;20057;-59
2023/05/24 02:08:38;;;;;;;8.95;2.20;;;;;;;14.00;50.58;100652.09;10287021;28;20127;-59
2023/05/24 02:13:40;;;;;;;6.90;2.20;;;;;;;13.74;51.18;100663.25;10305295;28;20108;-59
2023/05/24 02:18:43;;;;;;;7.22;2.53;;;;;;;13.83;50.91;100660.78;10305959;28;20152;-59
2023/05/24 02:23:45;;;;;;;5.72;2.15;;;;;;;13.79;50.15;100661.03;10305880;28;20042;-59
2023/05/24 02:28:47;;;;;;;6.93;2.88;;;;;;;13.82;49.89;100648.38;10308722;28;20050;-59
2023/05/24 02:33:48;;;;;;;5.85;2.97;;;;;;;13.80;49.46;100648.50;10304859;28;20706;-59
2023/05/24 02:38:50;;;;;;;6.05;2.20;;;;;;;13.57;49.95;100666.56;10299724;28;20050;-60
2023/05/24 02:43:52;;;;;;;5.68;2.25;;;;;;;13.60;50.41;100671.63;10300957;28;20165;-59
2023/05/24 02:48:53;;;;;;;9.55;2.17;;;;;;;13.57;49.94;100658.53;10304642;28;20157;-60
2023/05/24 02:53:55;;;;;;;9.80;3.17;;;;;;;13.60;49.79;100658.25;10302028;28;20054;-59
2023/05/24 02:58:56;;;;;;;6.60;2.58;;;;;;;13.61;50.01;100663.47;10303461;28;20054;-58
2023/05/24 03:03:59;;;;;;;6.30;2.20;;;;;;;13.65;50.06;100661.41;10294983;28;20053;-59
2023/05/24 03:09:01;;;;;;;6.80;2.13;;;;;;;13.61;49.96;100663.47;10306937;28;20061;-59
2023/05/24 03:14:02;;;;;;;9.70;2.70;;;;;;;13.46;50.39;100651.44;10284443;28;20057;-60
2023/05/24 03:19:04;;;;;;;8.40;2.13;;;;;;;13.44;50.45;100659.59;10292255;28;20908;-60
2023/05/24 03:24:11;;;;;;;5.22;2.17;;;;;;;13.42;50.54;100658.88;10303831;28;20058;-60
2023/05/24 03:29:13;;;;;;;11.17;2.73;;;;;;;13.43;50.52;100657.06;10304669;28;20140;-59
2023/05/24 03:34:15;;;;;;;6.22;2.10;;;;;;;13.39;50.45;100652.94;10306754;28;20136;-59
2023/05/24 03:39:16;;;;;;;6.40;2.20;;;;;;;13.31;50.63;100652.72;10285494;28;20050;-59
2023/05/24 03:44:18;;;;;;;7.10;2.63;;;;;;;13.32;50.40;100657.94;10283586;28;20691;-60
2023/05/24 03:49:19;;;;;;;6.22;2.05;;;;;;;13.11;50.49;100659.78;10301999;28;20144;-60
2023/05/24 03:54:21;;;;;;;8.93;2.78;;;;;;;13.15;50.05;100667.41;10307305;28;20285;-60
2023/05/24 03:59:22;;;;;;;10.30;2.63;;;;;;;13.16;50.13;100668.25;10302830;28;20577;-59
2023/05/24 04:04:24;;;;;;;8.00;2.35;;;;;;;13.19;50.48;100665.31;10305497;28;20050;-59
2023/05/24 04:09:26;;;;;;;8.90;2.53;;;;;;;13.19;50.06;100678.69;10314598;28;20371;-58
2023/05/24 04:14:27;;;;;;;9.75;2.17;;;;;;;13.11;50.30;100676.66;10314362;28;20050;-58
2023/05/24 04:19:28;;;;;;;7.22;2.13;;;;;;;13.08;50.04;100683.09;10313953;28;20052;-59
2023/05/24 04:24:30;;;;;;;8.43;2.33;;;;;;;13.07;49.95;100691.25;10316177;28;20053;-59
2023/05/24 04:29:32;;;;;;;8.00;2.30;;;;;;;13.11;50.07;100691.88;10298133;28;20049;-59
2023/05/24 04:34:34;;;;;;;7.88;2.50;;;;;;;12.90;50.41;100685.50;10316491;28;20191;-61
2023/05/24 04:39:35;;;;;;;8.25;2.17;;;;;;;12.88;50.73;100694.59;10288668;28;20069;-57
2023/05/24 04:44:39;;;;;;;5.60;2.08;;;;;;;12.93;51.32;100700.44;10310500;28;20136;-57
2023/05/24 04:49:40;;;;;;;7.47;2.67;;;;;;;12.87;50.44;100708.97;10312011;28;20057;-57
2023/05/24 04:54:42;;;;;;;9.02;2.20;;;;;;;12.43;52.39;100705.44;10298772;28;20751;-59
2023/05/24 04:59:44;;;;;;;9.27;2.60;;;;;;;12.72;51.79;100706.56;10296808;28;20065;-56
2023/05/24 05:04:46;;;;;;;8.82;2.72;;;;;;;12.75;51.99;100696.63;10301602;28;21403;-56
2023/05/24 05:09:48;;;;;;;8.07;2.40;;;;;;;12.87;51.75;100707.13;10314116;28;20103;-57
2023/05/24 05:14:49;;;;;;;6.95;2.20;;;;;;;12.93;51.17;100704.94;10289522;28;20405;-58
2023/05/24 05:19:51;;;;;;;9.32;2.67;;;;;;;12.93;51.94;100719.13;10292889;28;20057;-55
2023/05/24 05:24:52;;;;;;;7.75;2.13;;;;;;;13.01;51.55;100716.66;10312123;28;20125;-56
2023/05/24 05:29:54;;;;;;;8.73;2.95;;;;;;;12.60;52.36;100720.94;10312713;28;20046;-57
2023/05/24 05:34:55;;;;;;;7.65;2.92;;;;;;;12.75;53.17;100740.22;10312201;28;20087;-58
2023/05/24 05:39:57;;;;;;;7.45;2.92;;;;;;;12.96;52.15;100732.25;10297493;28;20191;-58
2023/05/24 05:44:59;;;;;;;11.13;2.88;;;;;;;13.01;52.35;100743.38;10309659;28;20063;-57
2023/05/24 05:50:00;;;;;;;7.30;2.33;;;;;;;13.01;52.21;100732.69;10308173;28;20132;-57
2023/05/24 05:55:02;;;;;;;10.18;3.55;;;;;;;13.20;51.48;100744.53;10282853;28;20045;-57
2023/05/24 06:00:04;;;;;;;9.13;2.80;;;;;;;13.38;51.54;100739.50;10308846;28;20193;-60
2023/05/24 06:05:06;;;;;;;12.50;3.17;;;;;;;13.47;50.50;100756.59;10303536;28;20438;-57
2023/05/24 06:10:08;;;;;;;11.20;2.92;;;;;;;13.35;50.39;100737.94;10304823;28;20144;-59
2023/05/24 06:15:10;;;;;;;8.68;2.55;;;;;;;13.49;50.43;100755.47;10300997;28;20061;-58
2023/05/24 06:20:14;;;;;;;7.28;2.58;;;;;;;13.62;49.61;100763.31;10305312;28;20054;-57
2023/05/24 06:25:18;;;;;;;12.25;3.40;;;;;;;13.61;49.54;100758.94;10306793;28;20053;-58
2023/05/24 06:30:19;;;;;;;11.35;3.72;;;;;;;13.58;49.97;100760.03;10309331;28;20080;-57
2023/05/24 06:35:21;;;;;;;10.93;2.75;;;;;;;13.71;49.78;100749.16;10279921;28;20445;-58
2023/05/24 06:40:23;;;;;;;10.55;4.00;;;;;;;13.84;49.33;100759.66;10295338;28;20064;-58
2023/05/24 06:45:25;;;;;;;8.20;2.83;;;;;;;13.90;48.91;100752.91;10303758;28;20096;-58
2023/05/24 06:50:27;;;;;;;9.73;3.25;;;;;;;13.98;48.53;100758.44;10306102;28;20740;-57
2023/05/24 06:55:28;;;;;;;11.02;2.88;;;;;;;14.04;49.11;100763.25;10296013;28;20057;-57
2023/05/24 07:00:30;;;;;;;9.32;2.80;;;;;;;14.14;47.78;100764.16;10285037;28;20770;-59
2023/05/24 07:05:32;;;;;;;11.15;3.47;;;;;;;14.19;47.35;100758.41;10302939;28;20064;-57
2023/05/24 07:10:34;;;;;;;8.50;2.80;;;;;;;14.25;47.71;100757.03;10297906;28;20785;-58
2023/05/24 07:15:35;;;;;;;8.60;3.15;;;;;;;14.34;46.86;100758.88;10293255;28;21421;-57
2023/05/24 07:20:37;;;;;;;9.88;3.63;;;;;;;14.26;46.52;100774.75;10300621;28;20089;-57
2023/05/24 07:25:40;;;;;;;8.18;3.38;;;;;;;14.18;46.27;100785.31;10302737;28;20057;-57
2023/05/24 07:30:42;;;;;;;10.93;3.10;;;;;;;13.99;47.01;100772.66;10300814;28;20050;-57
2023/05/24 07:35:49;;;;;;;8.30;3.33;;;;;;;14.28;47.47;100796.91;10290616;28;20127;-57
2023/05/24 07:40:51;;;;;;;7.13;2.95;;;;;;;14.54;46.34;100791.09;10308684;28;20101;-57
2023/05/24 07:45:53;;;;;;;12.20;3.88;;;;;;;14.62;46.60;100808.22;10305953;28;20050;-56
2023/05/24 07:50:55;;;;;;;7.15;2.92;;;;;;;14.72;47.09;100792.16;10285788;28;20177;-57
2023/05/24 07:55:58;;;;;;;8.43;2.70;;;;;;;15.03;46.18;100794.75;10311049;28;20565;-57
2023/05/24 08:01:00;;;;;;;9.02;3.50;;;;;;;14.98;46.18;100791.63;10308834;28;20057;-57
2023/05/24 08:06:02;;;;;;;10.65;3.67;;;;;;;15.09;46.73;100791.50;10289747;28;20054;-58
2023/05/24 08:11:04;;;;;;;8.88;3.72;;;;;;;14.56;46.63;100798.00;10288445;28;20510;-57
2023/05/24 08:16:06;;;;;;;9.60;3.13;;;;;;;14.51;46.84;100800.22;10308265;28;20053;-56
2023/05/24 08:21:09;;;;;;;9.90;3.55;;;;;;;14.44;46.89;100799.94;10290210;28;20065;-57
2023/05/24 08:26:11;;;;;;;10.40;3.58;;;;;;;14.11;47.35;100793.88;10307789;28;20069;-57
2023/05/24 08:31:13;;;;;;;9.07;3.35;;;;;;;13.96;48.13;100792.50;10305564;28;20125;-55
2023/05/24 08:36:16;;;;;;;12.35;3.67;;;;;;;14.22;47.45;100798.28;10306972;28;24626;-56
2023/05/24 08:41:18;;;;;;;10.98;3.00;;;;;;;14.23;47.35;100799.13;10302586;28;20512;-58
2023/05/24 08:46:20;;;;;;;5.18;2.60;;;;;;;14.62;47.24;100799.31;10304446;28;20053;-61
2023/05/24 08:51:23;;;;;;;9.13;3.53;;;;;;;15.06;44.73;100798.97;10292934;28;21870;-57
2023/05/24 08:56:28;;;;;;;7.97;2.65;;;;;;;15.25;45.68;100788.25;10312028;28;20767;-57
2023/05/24 09:01:31;;;;;;;9.18;3.10;;;;;;;15.42;44.99;100793.91;10292118;28;20053;-58
2023/05/24 09:06:35;;;;;;;10.10;3.63;;;;;;;15.16;45.69;100784.59;10310542;28;20057;-58
2023/05/24 09:11:39;;;;;;;7.95;3.13;;;;;;;15.55;44.91;100789.09;10286552;28;20216;-56
2023/05/24 09:16:43;;;;;;;8.00;3.08;;;;;;;15.93;44.64;100781.13;10311683;28;20579;-57
2023/05/24 09:21:45;;;;;;;8.85;3.15;;;;;;;16.02;43.06;100781.13;10279163;28;20666;-58
2023/05/24 09:26:49;;;;;;;11.07;3.20;;;;;;;16.31;43.76;100764.03;10313691;28;20390;-57
2023/05/24 09:31:54;;;;;;;9.27;3.78;;;;;;;16.13;43.02;100788.16;10294529;28;20056;-58
2023/05/24 09:36:56;;;;;;;8.32;3.10;;;;;;;15.81;42.70;100784.00;10308634;28;20053;-59
2023/05/24 09:41:57;;;;;;;8.73;3.13;;;;;;;16.22;42.91;100776.53;10309380;28;20054;-57
2023/05/24 09:47:05;;;;;;;6.82;3.05;;;;;;;16.77;45.17;100770.31;10308799;28;20600;-54
2023/05/24 09:52:07;;;;;;;8.85;3.33;;;;;;;16.66;43.43;100761.59;10305976;28;20061;-53
2023/05/24 09:57:10;;;;;;;8.13;3.20;;;;;;;17.08;42.06;100767.31;10292929;28;20049;-53
2023/05/24 10:02:11;;;;;;;8.75;3.30;;;;;;;17.21;41.43;100764.22;10311469;28;20165;-54
2023/05/24 10:07:14;;;;;;;8.05;3.05;;;;;;;17.45;41.18;100762.72;10309549;28;20053;-52
2023/05/24 10:12:16;;;;;;;8.27;3.17;;;;;;;17.72;40.40;100742.91;10309205;28;20428;-52
2023/05/24 10:17:17;;;;;;;7.82;4.07;;;;;;;18.09;38.78;100755.28;10311844;28;20050;-51
2023/05/24 10:22:21;;;;;;;8.02;2.53;;;;;;;18.13;39.29;100756.63;10308338;28;20052;-53
2023/05/24 10:27:29;;;;;;;7.70;3.65;;;;;;;18.25;38.37;100751.81;10305370;28;20577;-53
2023/05/24 10:32:34;;;;;;;8.18;3.33;;;;;;;18.30;38.96;100762.09;10311689;28;20057;-54
2023/05/24 10:37:36;;;;;;;10.10;3.42;;;;;;;18.54;38.42;100754.13;10311353;28;20064;-53
2023/05/24 10:42:37;;;;;;;6.85;2.90;;;;;;;18.66;37.92;100743.88;10308171;28;20143;-53
2023/05/24 10:47:39;;;;;;;5.40;2.72;;;;;;;19.01;36.46;100739.25;10305462;28;20050;-58
2023/05/24 10:52:41;;;;;;;9.00;3.25;;;;;;;19.11;35.90;100738.22;10304942;28;20069;-55
2023/05/24 10:57:42;;;;;;;6.32;2.75;;;;;;;19.18;36.49;100725.75;10307171;28;20054;-57
2023/05/24 11:02:48;;;;;;;6.20;2.50;;;;;;;19.29;36.32;100725.44;10307452;28;20065;-57
2023/05/24 11:07:58;;;;;;;6.65;2.60;;;;;;;19.36;34.09;100728.28;10307520;28;20046;-56
2023/05/24 11:13:03;;;;;;;7.28;2.80;;;;;;;18.85;35.87;100725.69;10307065;28;21377;-56
2023/05/24 11:18:14;;;;;;;8.75;3.03;;;;;;;19.21;35.89;100717.34;10302105;28;20498;-56
2023/05/24 11:23:16;;;;;;;6.15;2.45;;;;;;;19.54;35.52;100722.72;10300317;28;20053;-56
2023/05/24 11:28:17;;;;;;;6.57;2.50;;;;;;;19.88;33.61;100713.56;10305755;28;20484;-56
2023/05/24 11:33:22;;;;;;;6.45;2.38;;;;;;;20.09;33.10;100708.41;10301797;28;20100;-57
2023/05/24 11:38:24;;;;;;;5.88;2.58;;;;;;;20.34;33.93;100700.19;10304239;28;20080;-58
2023/05/24 11:43:29;;;;;;;4.77;2.60;;;;;;;20.48;33.81;100694.03;10304154;28;20562;-58
2023/05/24 11:48:31;;;;;;;6.30;2.90;;;;;;;20.26;33.31;100698.38;10311890;28;20058;-56
2023/05/24 11:53:33;;;;;;;6.93;2.83;;;;;;;20.26;32.00;100702.94;10283745;28;20069;-56
2023/05/24 11:58:44;;;;;;;4.57;2.75;;;;;;;20.41;33.06;100703.03;10302326;28;20525;-57
2023/05/24 12:03:46;;;;;;;6.72;2.53;;;;;;;20.07;33.26;100688.84;10286356;28;20062;-56
2023/05/24 12:08:48;;;;;;;7.20;2.70;;;;;;;19.52;34.78;100695.06;10306966;28;20061;-55
2023/05/24 12:13:49;;;;;;;6.78;2.90;;;;;;;19.83;34.41;100694.31;10305849;28;20142;-60
2023/05/24 12:18:51;;;;;;;5.82;2.85;;;;;;;20.01;33.63;100683.28;10304023;28;20189;-58
2023/05/24 12:24:09;;;;;;;6.85;2.50;;;;;;;20.16;34.07;100699.59;10303589;28;20054;-57
2023/05/24 12:29:12;;;;;;;7.07;2.88;;;;;;;20.08;33.74;100693.22;10309089;28;20050;-57
2023/05/24 12:34:18;;;;;;;7.53;3.13;;;;;;;20.28;33.03;100698.19;10305949;28;20074;-57
2023/05/24 12:39:25;;;;;;;7.60;2.40;;;;;;;20.60;32.65;100685.53;10291218;28;20070;-57
2023/05/24 12:44:30;;;;;;;6.55;2.70;;;;;;;20.80;32.42;100694.88;10305781;28;20164;-57
2023/05/24 12:49:31;;;;;;;6.53;2.83;;;;;;;20.73;32.11;100685.81;10312001;28;20361;-57
2023/05/24 12:54:33;;;;;;;9.70;3.53;;;;;;;20.38;32.14;100679.91;10300557;23;20128;-71
2023/05/24 12:59:35;;;;;;;9.38;2.70;;;;;;;20.05;32.49;100654.91;10318876;28;20674;-70
2023/05/24 13:04:37;;;;;;;9.02;3.08;;;;;;;20.10;32.31;100668.72;10331659;28;20130;-70
2023/05/24 13:09:38;;;;;;;7.85;3.47;;;;;;;20.09;32.36;100667.88;10328933;28;20061;-70
2023/05/24 13:14:40;;;;;;;7.72;3.33;;;;;;;20.11;32.84;100671.25;10332432;28;20054;-70
2023/05/24 13:19:41;;;;;;;6.50;2.95;;;;;;;20.44;31.87;100654.84;10327860;28;20057;-70
2023/05/24 13:24:43;;;;;;;6.25;3.08;;;;;;;20.52;32.66;100658.53;10333609;28;20092;-69
2023/05/24 13:29:44;;;;;;;8.48;3.45;;;;;;;20.40;32.43;100656.25;10335589;28;20050;-70
2023/05/24 13:35:00;;;;;;;5.95;3.38;;;;;;;20.36;32.03;100649.50;10328659;28;20050;-69
2023/05/24 13:40:03;;;;;;;5.72;2.60;;;;;;;20.00;31.65;100652.72;10328949;28;20448;-70
2023/05/24 13:45:05;;;;;;;4.35;2.13;;;;;;;19.67;31.81;100654.69;10340689;28;20117;-70
2023/05/24 13:50:08;;;;;;;5.70;2.80;;;;;;;19.94;31.89;100651.56;10373002;28;20037;-71
2023/05/24 13:55:10;;;;;;;6.07;3.03;;;;;;;19.77;32.29;100637.28;10339124;28;20173;-70
2023/05/24 14:00:13;;;;;;;10.15;2.60;;;;;;;19.90;36.51;100652.09;10332640;28;20057;-70
2023/05/24 14:05:14;;;;;;;7.47;2.60;;;;;;;19.92;34.26;100650.91;10328509;28;20073;-70
2023/05/24 14:10:27;;;;;;;5.53;2.83;;;;;;;19.96;33.59;100648.69;10317290;28;20543;-73
2023/05/24 14:15:29;;;;;;;5.18;2.80;;;;;;;19.87;33.24;100647.03;10330099;28;20132;-71
2023/05/24 14:20:31;;;;;;;8.32;2.75;;;;;;;19.89;33.13;100647.69;10328652;28;20125;-67
2023/05/24 14:25:33;;;;;;;5.43;2.55;;;;;;;19.96;33.67;100654.09;10310162;28;20061;-69
2023/05/24 14:30:36;;;;;;;5.38;2.60;;;;;;;19.97;33.41;100636.88;10309274;28;20177;-70
2023/05/24 14:35:38;;;;;;;5.68;2.53;;;;;;;19.59;33.37;100633.91;10325353;28;20054;-69
2023/05/24 14:40:41;;;;;;;9.20;2.90;;;;;;;19.72;34.33;100639.63;10321871;28;20058;-67
2023/05/24 14:45:42;;;;;;;4.55;1.95;;;;;;;19.67;33.35;100631.22;10318955;28;21425;-68
2023/05/24 14:50:44;;;;;;;5.10;2.38;;;;;;;19.81;33.03;100634.25;10303447;28;20050;-70
2023/05/24 14:55:45;;;;;;;3.92;2.58;;;;;;;19.76;32.69;100624.75;10311757;28;20054;-68
2023/05/24 15:00:47;;;;;;;9.50;2.60;;;;;;;19.49;32.36;100625.19;10314090;28;20078;-71
2023/05/24 15:05:50;;;;;;;4.40;1.95;;;;;;;19.54;32.20;100631.75;10312597;28;20678;-68
2023/05/24 15:10:51;;;;;;;6.43;2.28;;;;;;;19.58;32.95;100626.84;10314370;28;20057;-69
2023/05/24 15:15:55;;;;;;;4.78;2.22;;;;;;;19.38;32.79;100623.69;10311342;28;20626;-70
2023/05/24 15:20:56;;;;;;;;;;;;;;;19.45;32.19;100615.75;10300690;28;20070;-70
2023/05/24 15:25:58;;;;;;;7.43;2.83;;;;;;;19.34;31.64;100620.50;10315781;28;20110;-69
2023/05/24 15:31:00;;;;;;;6.22;2.65;;;;;;;19.45;31.33;100623.84;10313837;28;20389;-69
2023/05/24 15:36:03;;;;;;;5.25;2.67;;;;;;;19.37;31.01;100612.06;10296525;28;20597;-69
2023/05/24 15:41:04;;;;;;;6.35;2.40;;;;;;;19.22;31.75;100611.09;10311871;28;20050;-68
2023/05/24 15:46:06;;;;;;;6.35;2.47;;;;;;;19.23;32.21;100623.53;10310235;28;20528;-69
2023/05/24 15:51:07;;;;;;;6.50;3.53;;;;;;;19.15;32.48;100626.28;10316058;28;20124;-71
2023/05/24 15:56:12;;;;;;;4.68;2.00;;;;;;;19.04;32.27;100604.00;10309220;28;20053;-69
2023/05/24 16:01:13;;;;;;;3.90;2.05;;;;;;;19.08;31.64;100621.56;10312098;28;20050;-70
2023/05/24 16:06:15;;;;;;;4.72;1.77;;;;;;;19.01;31.85;100619.72;10293717;28;20547;-71
2023/05/24 16:11:16;;;;;;;5.63;2.75;;;;;;;18.86;32.29;100627.63;10310742;28;20062;-70
2023/05/24 16:16:22;;;;;;;5.93;1.92;;;;;;;18.91;32.14;100625.28;10298444;28;20057;-70
2023/05/24 16:21:23;;;;;;;5.40;2.08;;;;;;;18.79;31.67;100615.81;10294090;28;20047;-69
2023/05/24 16:26:25;;;;;;;4.45;2.58;;;;;;;18.69;32.14;100615.94;10311632;28;20054;-71
2023/05/24 16:31:29;;;;;;;7.40;2.50;;;;;;;18.53;32.58;100617.63;10309567;28;20072;-72
2023/05/24 16:36:31;;;;;;;8.18;2.22;;;;;;;18.67;32.38;100608.03;10311088;28;20145;-69
2023/05/24 16:41:36;;;;;;;5.85;2.55;;;;;;;18.55;32.86;100604.84;10308672;28;20336;-70
2023/05/24 16:46:38;;;;;;;4.47;1.90;;;;;;;18.62;33.04;100598.78;10297390;28;20049;-69
2023/05/24 16:51:39;;;;;;;4.05;2.03;;;;;;;18.74;33.84;100608.22;10312960;28;20153;-71
2023/05/24 16:56:41;;;;;;;5.53;2.70;;;;;;;18.64;34.72;100596.75;10353887;28;20042;-71
2023/05/24 17:01:44;;;;;;;5.90;2.40;;;;;;;18.78;33.51;100600.63;10322073;28;20053;-72
2023/05/24 17:06:45;;;;;;;6.63;2.70;;;;;;;18.78;33.55;100597.94;10303571;28;20132;-71
2023/05/24 17:11:47;;;;;;;4.72;2.22;;;;;;;18.82;34.18;100593.88;10331748;28;20061;-69
2023/05/24 17:16:51;;;;;;;;;;;;;;;18.85;33.33;100609.72;10324968;28;20457;-68
2023/05/24 17:21:52;;;;;;;5.25;2.35;;;;;;;18.73;33.19;100606.53;10306469;28;19957;-69
2023/05/24 17:26:53;;;;;;;4.55;2.20;;;;;;;18.65;34.17;100604.69;10321468;28;20058;-70
2023/05/24 17:31:55;;;;;;;7.65;3.45;;;;;;;18.63;33.74;100605.84;10318386;28;20108;-70
2023/05/24 17:36:57;;;;;;;3.47;2.28;;;;;;;18.64;34.05;100611.06;10318815;28;20050;-71
2023/05/24 17:41:58;;;;;;;4.75;2.10;;;;;;;18.62;34.27;100604.19;10321091;28;21717;-69
2023/05/24 17:47:00;;;;;;;6.65;2.63;;;;;;;18.53;34.57;100620.34;10305132;28;20053;-69
2023/05/24 17:52:02;;;;;;;4.93;2.08;;;;;;;18.54;35.23;100622.03;10321925;28;20054;-70
2023/05/24 17:57:04;;;;;;;6.28;2.30;;;;;;;18.53;35.48;100624.91;10304090;28;20193;-70
2023/05/24 18:02:06;;;;;;;5.22;2.05;;;;;;;18.41;35.44;100623.53;10322475;28;20049;-69
2023/05/24 18:07:07;;;;;;;6.05;2.70;;;;;;;18.40;35.94;100628.06;10306924;28;20073;-70
2023/05/24 18:12:10;;;;;;;5.63;2.13;;;;;;;18.30;36.39;100622.84;10321560;28;20085;-69
2023/05/24 18:17:13;;;;;;;3.15;2.17;;;;;;;18.30;36.86;100638.13;10315743;28;20636;-70
2023/05/24 18:22:15;;;;;;;6.13;2.65;;;;;;;18.16;36.85;100635.06;10307982;28;20430;-69
2023/05/24 18:27:16;;;;;;;5.75;2.65;;;;;;;18.06;36.94;100630.84;10320680;28;20065;-70
2023/05/24 18:32:18;;;;;;;4.88;2.58;;;;;;;17.96;37.00;100642.59;10327282;28;20359;-69
2023/05/24 18:37:21;;;;;;;6.47;2.67;;;;;;;17.84;37.79;100649.25;10312746;28;20136;-70
2023/05/24 18:42:23;;;;;;;8.77;2.50;;;;;;;17.77;38.24;100642.81;10296878;28;20186;-69
2023/05/24 18:47:26;;;;;;;8.90;2.58;;;;;;;17.60;39.42;100650.78;10312914;28;20157;-70
2023/05/24 18:52:27;;;;;;;6.05;2.13;;;;;;;17.42;39.64;100648.16;10313954;28;20079;-69
2023/05/24 18:57:30;;;;;;;9.95;2.92;;;;;;;17.26;40.23;100665.06;10311294;28;20065;-70
2023/05/24 19:02:36;;;;;;;8.85;2.88;;;;;;;17.25;40.26;100662.50;10290215;28;20338;-70
2023/05/24 19:07:40;;;;;;;6.30;3.08;;;;;;;16.90;40.81;100651.69;10315130;28;20488;-71
2023/05/24 19:12:41;;;;;;;4.85;2.55;;;;;;;16.74;41.38;100667.63;10294413;28;20053;-70
2023/05/24 19:17:43;;;;;;;8.80;3.03;;;;;;;16.85;41.44;100675.44;10309288;28;20483;-70
2023/05/24 19:22:44;;;;;;;8.27;2.63;;;;;;;16.88;41.10;100685.91;10295516;28;21423;-68
2023/05/24 19:27:47;;;;;;;7.43;2.78;;;;;;;16.81;41.45;100697.41;10317888;28;20053;-70
2023/05/24 19:33:00;;;;;;;5.10;2.55;;;;;;;16.61;42.13;100703.75;10272029;28;20156;-70
2023/05/24 19:38:02;;;;;;;6.72;2.40;;;;;;;16.60;42.35;100704.78;10314229;28;20046;-70
2023/05/24 19:43:04;;;;;;;9.10;2.95;;;;;;;16.45;42.78;100706.28;10309934;28;20065;-69
2023/05/24 19:48:08;;;;;;;6.57;3.08;;;;;;;16.33;43.53;100720.91;10309770;28;20067;-70
2023/05/24 19:53:09;;;;;;;;;;;;;;;16.27;43.76;100725.03;10307681;28;20128;-71
2023/05/24 19:58:11;;;;;;;6.88;2.53;;;;;;;16.28;43.77;100724.06;10309108;28;19929;-69
2023/05/24 20:03:12;;;;;;;9.13;3.17;;;;;;;16.21;44.14;100737.25;10366605;28;20058;-73
2023/05/24 20:08:15;;;;;;;6.75;3.00;;;;;;;16.21;44.48;100745.31;10344369;28;20064;-70
2023/05/24 20:13:16;;;;;;;7.40;2.63;;;;;;;16.08;44.54;100737.56;10299586;28;20052;-69
2023/05/24 20:18:18;;;;;;;6.43;3.00;;;;;;;15.85;45.80;100734.41;10317344;28;20049;-69
2023/05/24 20:23:20;;;;;;;6.80;3.58;;;;;;;15.73;46.10;100749.81;10292371;28;20656;-70
2023/05/24 20:28:23;;;;;;;9.68;3.95;;;;;;;15.77;46.06;100744.16;10313866;28;20088;-68
2023/05/24 20:33:36;;;;;;;6.93;2.85;;;;;;;15.68;46.26;100756.59;10308006;28;20667;-71
2023/05/24 20:38:38;;;;;;;7.15;4.20;;;;;;;15.65;46.71;100751.53;10306998;28;20046;-70
2023/05/24 20:43:40;;;;;;;7.40;3.35;;;;;;;15.72;46.96;100752.66;10309075;28;20088;-71
2023/05/24 20:48:42;;;;;;;8.85;3.83;;;;;;;15.60;47.57;100761.81;10313835;28;20061;-69
2023/05/24 20:53:44;;;;;;;5.30;3.22;;;;;;;15.63;47.73;100753.53;10305931;28;20594;-70
2023/05/24 20:58:48;;;;;;;8.00;3.88;;;;;;;15.55;47.65;100751.53;10315811;28;20489;-67
2023/05/24 21:03:49;;;;;;;11.20;3.57;;;;;;;15.55;47.66;100757.75;10300034;28;20056;-67
2023/05/24 21:08:50;;;;;;;12.00;3.72;;;;;;;15.45;47.88;100756.91;10316197;28;20136;-67
2023/05/24 21:13:52;;;;;;;10.50;4.35;;;;;;;15.49;47.56;100752.97;10314051;28;20052;-66
2023/05/24 21:18:53;;;;;;;8.98;3.05;;;;;;;15.49;48.02;100763.69;10315763;28;20153;-67
2023/05/24 21:23:55;;;;;;;7.43;3.50;;;;;;;15.40;48.52;100764.53;10297779;28;20193;-68
2023/05/24 21:28:57;;;;;;;6.88;3.08;;;;;;;15.22;48.75;100760.88;10303819;28;20077;-69
2023/05/24 21:33:58;;;;;;;8.18;3.60;;;;;;;15.30;48.91;100763.72;10310226;28;20125;-69
2023/05/24 21:39:02;;;;;;;8.32;3.35;;;;;;;15.29;48.85;100767.38;10312316;28;20049;-69
2023/05/24 21:44:06;;;;;;;6.43;2.53;;;;;;;15.22;48.75;100767.09;10311678;28;20057;-69
2023/05/24 21:49:07;;;;;;;5.73;2.87;;;;;;;15.13;48.92;100770.63;10318433;28;20475;-68
2023/05/24 21:54:08;;;;;;;7.13;2.67;;;;;;;15.13;48.95;100762.56;10315567;28;20464;-67
2023/05/24 21:59:10;;;;;;;5.63;3.00;;;;;;;15.09;49.17;100778.09;10313809;28;20068;-66
2023/05/24 22:04:11;;;;;;;6.97;2.72;;;;;;;15.07;49.27;100780.06;10298500;28;20050;-68
2023/05/24 22:09:13;;;;;;;5.15;2.80;;;;;;;14.87;49.56;100789.09;10298208;28;20073;-68
2023/05/24 22:14:15;;;;;;;6.43;2.50;;;;;;;14.78;49.77;100780.88;10304431;28;20053;-68
2023/05/24 22:19:16;;;;;;;7.03;2.75;;;;;;;14.79;49.78;100790.63;10299009;28;20140;-67
2023/05/24 22:24:32;;;;;;;6.47;2.55;;;;;;;14.56;50.29;100786.44;10292565;28;20050;-68
2023/05/24 22:29:34;;;;;;;4.95;2.30;;;;;;;14.61;50.23;100789.59;10304483;28;20050;-68
2023/05/24 22:34:36;;;;;;;6.20;2.30;;;;;;;14.57;50.14;100791.66;10308654;28;20045;-69
2023/05/24 22:39:37;;;;;;;4.10;2.00;;;;;;;14.58;50.68;100795.19;10301492;28;20057;-69
2023/05/24 22:44:39;;;;;;;5.68;2.22;;;;;;;14.45;50.60;100796.25;10283583;28;20413;-68
2023/05/24 22:49:41;;;;;;;4.53;2.20;;;;;;;14.43;50.99;100792.88;10309777;28;20173;-67
2023/05/24 22:54:43;;;;;;;3.15;1.83;;;;;;;14.47;51.08;100798.78;10312442;28;20124;-67
2023/05/24 22:59:45;;;;;;;2.85;1.80;;;;;;;14.19;52.63;100803.06;10314169;28;20705;-66
2023/05/24 23:04:47;;;;;;;3.85;2.10;;;;;;;14.17;52.95;100802.34;10313343;28;20137;-66
2023/05/24 23:09:48;;;;;;;2.97;2.00;;;;;;;14.19;52.67;100805.75;10321212;28;20050;-69